createdAt,value
2019-04-29T00:01:12.498Z,9.00
2019-04-29T00:03:50.022Z,9.00
2019-04-29T00:06:27.509Z,8.90
2019-04-29T00:09:06.804Z,8.90
2019-04-29T00:11:42.820Z,8.90
2019-04-29T00:14:20.310Z,8.90
2019-04-29T00:17:18.988Z,8.80
2019-04-29T00:20:35.026Z,8.80
2019-04-29T00:23:12.506Z,8.80
2019-04-29T00:25:50.031Z,8.70
2019-04-29T00:28:27.520Z,8.70
2019-04-29T00:31:05.049Z,8.70
2019-04-29T00:33:42.539Z,8.70
2019-04-29T00:36:20.132Z,8.70
2019-04-29T00:39:16.243Z,8.80
2019-04-29T00:42:12.299Z,8.80
2019-04-29T00:44:49.842Z,8.80
2019-04-29T00:47:27.334Z,8.70
2019-04-29T00:50:04.834Z,8.70
2019-04-29T00:52:42.309Z,8.70
2019-04-29T00:55:20.773Z,8.60
2019-04-29T00:57:58.248Z,8.60
2019-04-29T01:00:38.286Z,8.60
2019-04-29T01:03:15.700Z,8.60
2019-04-29T01:05:53.204Z,8.60
2019-04-29T01:08:30.742Z,8.60
2019-04-29T01:11:08.230Z,8.60
2019-04-29T01:13:45.723Z,8.50
2019-04-29T01:16:23.214Z,8.50
2019-04-29T01:19:03.725Z,8.50
2019-04-29T01:21:38.182Z,8.50
2019-04-29T01:24:15.664Z,8.50
2019-04-29T01:27:03.583Z,8.50
2019-04-29T01:29:41.081Z,8.50
2019-04-29T01:32:18.580Z,8.50
2019-04-29T01:34:56.646Z,8.50
2019-04-29T01:37:42.257Z,8.50
2019-04-29T01:40:38.363Z,8.40
2019-04-29T01:43:15.855Z,8.40
2019-04-29T01:45:53.362Z,8.40
2019-04-29T01:48:30.847Z,8.30
2019-04-29T01:51:08.365Z,8.40
2019-04-29T01:53:45.842Z,8.30
2019-04-29T01:56:23.359Z,8.40
2019-04-29T01:59:00.839Z,8.40
2019-04-29T02:01:38.357Z,8.30
2019-04-29T02:04:15.834Z,8.40
2019-04-29T02:06:53.572Z,8.40
2019-04-29T02:09:45.310Z,8.40
2019-04-29T02:12:22.796Z,8.30
2019-04-29T02:15:00.281Z,8.30
2019-04-29T02:17:37.811Z,8.30
2019-04-29T02:20:15.306Z,8.30
2019-04-29T02:23:12.187Z,8.30
2019-04-29T02:25:49.694Z,8.30
2019-04-29T02:28:27.208Z,8.30
2019-04-29T02:31:23.088Z,8.30
2019-04-29T02:34:00.608Z,8.30
2019-04-29T02:36:38.161Z,8.20
2019-04-29T02:39:24.622Z,8.20
2019-04-29T02:42:20.769Z,8.10
2019-04-29T02:45:00.694Z,8.10
2019-04-29T02:47:38.205Z,8.00
2019-04-29T02:50:15.663Z,8.00
2019-04-29T02:52:53.179Z,8.00
2019-04-29T02:55:33.621Z,7.90
2019-04-29T02:58:18.523Z,8.00
2019-04-29T03:01:14.638Z,8.00
2019-04-29T03:04:15.271Z,7.90
2019-04-29T03:06:52.753Z,8.00
2019-04-29T03:09:30.328Z,8.00
2019-04-29T03:12:07.807Z,8.10
2019-04-29T03:14:45.601Z,8.10
2019-04-29T03:17:23.108Z,8.10
2019-04-29T03:20:19.413Z,8.10
2019-04-29T03:23:09.676Z,8.20
2019-04-29T03:25:47.151Z,8.20
2019-04-29T03:28:24.690Z,8.20
2019-04-29T03:31:02.192Z,8.30
2019-04-29T03:33:39.651Z,8.30
2019-04-29T03:36:17.146Z,8.30
2019-04-29T03:38:54.668Z,8.30
2019-04-29T03:41:32.166Z,8.30
2019-04-29T03:44:09.674Z,8.30
2019-04-29T03:46:47.182Z,8.30
2019-04-29T03:49:24.674Z,8.40
2019-04-29T03:52:02.160Z,8.40
2019-04-29T03:54:39.655Z,8.40
2019-04-29T03:57:17.150Z,8.40
2019-04-29T03:59:57.089Z,8.50
2019-04-29T04:02:47.058Z,8.50
2019-04-29T04:05:46.039Z,8.60
2019-04-29T04:08:34.425Z,8.60
2019-04-29T04:11:11.946Z,8.60
2019-04-29T04:13:49.478Z,8.70
2019-04-29T04:16:51.757Z,8.70
2019-04-29T04:19:29.445Z,8.70
2019-04-29T04:22:06.875Z,8.80
2019-04-29T04:24:44.385Z,8.80
2019-04-29T04:27:21.863Z,8.80
2019-04-29T04:29:59.395Z,8.90
2019-04-29T04:32:36.909Z,8.90
2019-04-29T04:35:14.450Z,9.00
2019-04-29T04:37:51.938Z,9.10
2019-04-29T04:40:41.676Z,9.10
2019-04-29T04:43:19.203Z,9.20
2019-04-29T04:45:56.727Z,9.30
2019-04-29T04:48:34.240Z,9.30
2019-04-29T04:51:11.762Z,9.30
2019-04-29T04:53:49.348Z,9.40
2019-04-29T04:56:26.845Z,9.40
2019-04-29T04:59:04.338Z,9.40
2019-04-29T05:01:41.869Z,9.50
2019-04-29T05:04:19.365Z,9.50
2019-04-29T05:06:56.901Z,9.50
2019-04-29T05:09:34.445Z,9.60
2019-04-29T05:12:14.129Z,9.70
2019-04-29T05:14:49.506Z,9.70
2019-04-29T05:17:27.028Z,9.80
2019-04-29T05:20:04.615Z,9.80
2019-04-29T05:22:43.472Z,9.80
2019-04-29T05:25:21.043Z,9.90
2019-04-29T05:27:58.506Z,9.90
2019-04-29T05:30:36.015Z,9.90
2019-04-29T05:33:13.527Z,9.90
2019-04-29T05:36:01.844Z,9.90
2019-04-29T05:38:46.151Z,10.00
2019-04-29T05:41:25.502Z,10.10
2019-04-29T05:44:07.885Z,10.30
2019-04-29T05:46:49.204Z,10.40
2019-04-29T05:49:45.355Z,10.50
2019-04-29T05:52:49.724Z,10.60
2019-04-29T05:55:24.761Z,10.60
2019-04-29T05:58:15.202Z,10.60
2019-04-29T06:01:04.775Z,10.60
2019-04-29T06:03:44.299Z,10.50
2019-04-29T06:06:19.858Z,10.50
2019-04-29T06:08:57.479Z,10.60
2019-04-29T06:11:34.977Z,10.70
2019-04-29T06:14:12.561Z,10.70
2019-04-29T06:16:52.715Z,10.90
2019-04-29T06:19:27.765Z,10.90
2019-04-29T06:22:05.393Z,10.90
2019-04-29T06:24:42.996Z,11.00
2019-04-29T06:27:20.587Z,10.90
2019-04-29T06:29:58.585Z,10.80
2019-04-29T06:32:35.666Z,10.80
2019-04-29T06:35:14.269Z,10.80
2019-04-29T06:37:50.828Z,10.80
2019-04-29T06:40:30.724Z,10.70
2019-04-29T06:43:06.165Z,10.70
2019-04-29T06:45:43.715Z,10.70
2019-04-29T06:48:21.428Z,10.70
2019-04-29T06:50:58.883Z,10.70
2019-04-29T06:53:36.388Z,10.60
2019-04-29T06:56:13.965Z,10.60
2019-04-29T06:58:51.493Z,10.50
2019-04-29T07:01:29.025Z,10.10
2019-04-29T07:04:06.627Z,9.80
2019-04-29T07:06:56.771Z,9.60
2019-04-29T07:09:21.689Z,9.50
2019-04-29T07:12:01.537Z,9.50
2019-04-29T07:14:38.547Z,9.50
2019-04-29T07:17:14.424Z,9.60
2019-04-29T07:19:51.930Z,9.70
2019-04-29T07:22:31.123Z,9.60
2019-04-29T07:25:06.967Z,9.50
2019-04-29T07:27:44.676Z,9.50
2019-04-29T07:30:22.017Z,9.40
2019-04-29T07:32:59.524Z,9.30
2019-04-29T07:35:38.330Z,9.30
2019-04-29T07:38:14.542Z,9.20
2019-04-29T07:40:52.055Z,9.10
2019-04-29T07:43:29.563Z,8.90
2019-04-29T07:46:25.347Z,8.80
2019-04-29T07:49:05.568Z,8.80
2019-04-29T07:51:40.835Z,8.70
2019-04-29T07:54:17.867Z,8.70
2019-04-29T07:56:55.353Z,8.60
2019-04-29T07:59:33.902Z,8.60
2019-04-29T08:02:10.375Z,8.60
2019-04-29T08:04:47.909Z,8.60
2019-04-29T08:07:25.800Z,8.70
2019-04-29T08:10:03.716Z,8.70
2019-04-29T08:12:41.301Z,8.80
2019-04-29T08:15:18.876Z,8.70
2019-04-29T08:18:06.417Z,8.80
2019-04-29T08:20:35.397Z,8.80
2019-04-29T08:23:11.470Z,8.90
2019-04-29T08:25:50.958Z,9.00
2019-04-29T08:28:26.562Z,9.10
2019-04-29T08:31:04.074Z,9.20
2019-04-29T08:33:42.398Z,9.20
2019-04-29T08:36:19.116Z,9.20
2019-04-29T08:39:07.944Z,9.10
2019-04-29T08:41:34.135Z,9.20
2019-04-29T08:44:28.311Z,9.10
2019-04-29T08:47:22.928Z,9.10
2019-04-29T08:49:59.782Z,9.10
2019-04-29T08:52:37.388Z,9.30
2019-04-29T08:55:14.936Z,9.20
2019-04-29T08:57:52.463Z,9.30
2019-04-29T09:00:30.123Z,9.40
2019-04-29T09:03:08.773Z,9.40
2019-04-29T09:06:04.413Z,9.50
2019-04-29T09:08:24.021Z,9.50
2019-04-29T09:11:01.761Z,9.50
2019-04-29T09:13:39.398Z,9.50
2019-04-29T09:16:17.048Z,9.40
2019-04-29T09:18:54.561Z,9.40
2019-04-29T09:21:32.095Z,9.20
2019-04-29T09:24:09.835Z,9.20
2019-04-29T09:26:50.747Z,9.20
2019-04-29T09:29:38.811Z,9.10
2019-04-29T09:32:16.325Z,9.10
2019-04-29T09:34:55.527Z,9.10
2019-04-29T09:37:31.632Z,9.10
2019-04-29T09:40:09.492Z,9.00
2019-04-29T09:43:15.387Z,9.00
2019-04-29T09:46:05.508Z,9.00
2019-04-29T09:48:43.289Z,9.00
2019-04-29T09:51:22.599Z,9.00
2019-04-29T09:53:58.845Z,8.90
2019-04-29T09:56:36.360Z,9.00
2019-04-29T09:59:24.774Z,9.00
2019-04-29T10:02:31.219Z,9.00
2019-04-29T10:05:26.751Z,8.90
2019-04-29T10:08:04.268Z,8.90
2019-04-29T10:10:41.749Z,8.80
2019-04-29T10:13:19.439Z,8.80
2019-04-29T10:16:15.591Z,8.80
2019-04-29T10:19:11.770Z,8.80
2019-04-29T10:21:49.325Z,8.80
2019-04-29T10:24:26.799Z,8.80
2019-04-29T10:27:07.120Z,8.90
2019-04-29T10:29:41.787Z,9.00
2019-04-29T10:32:19.274Z,9.00
2019-04-29T10:34:56.801Z,9.10
2019-04-29T10:37:34.320Z,9.10
2019-04-29T10:40:33.456Z,9.10
2019-04-29T10:43:29.602Z,9.20
2019-04-29T10:46:28.317Z,9.20
2019-04-29T10:49:09.754Z,9.30
2019-04-29T10:51:47.240Z,9.20
2019-04-29T10:54:24.740Z,9.30
2019-04-29T10:57:02.231Z,9.30
2019-04-29T10:59:40.735Z,9.30
2019-04-29T11:02:39.632Z,9.30
2019-04-29T11:05:59.859Z,9.20
2019-04-29T11:08:43.944Z,9.20
2019-04-29T11:11:23.358Z,9.20
2019-04-29T11:14:01.541Z,9.30
2019-04-29T11:16:46.260Z,9.30
2019-04-29T11:19:13.927Z,9.30
2019-04-29T11:21:51.421Z,9.20
2019-04-29T11:24:47.495Z,9.20
2019-04-29T11:27:31.105Z,9.20
2019-04-29T11:30:11.442Z,9.10
2019-04-29T11:32:51.717Z,9.10
2019-04-29T11:35:35.739Z,9.10
2019-04-29T11:38:11.828Z,9.00
2019-04-29T11:40:49.320Z,9.10
2019-04-29T11:43:26.830Z,9.10
2019-04-29T11:46:04.332Z,9.20
2019-04-29T11:48:41.847Z,9.20
2019-04-29T11:51:49.298Z,9.20
2019-04-29T11:54:18.114Z,9.20
2019-04-29T11:56:52.985Z,9.10
2019-04-29T11:59:48.714Z,9.10
2019-04-29T12:02:45.769Z,9.30
2019-04-29T12:05:40.174Z,9.40
2019-04-29T12:08:16.977Z,9.40
2019-04-29T12:11:06.145Z,9.40
2019-04-29T12:13:45.123Z,9.40
2019-04-29T12:16:28.949Z,9.40
2019-04-29T12:19:12.802Z,9.40
2019-04-29T12:21:50.291Z,9.50
2019-04-29T12:24:27.811Z,9.60
2019-04-29T12:27:05.301Z,9.70
2019-04-29T12:29:42.837Z,9.70
2019-04-29T12:32:43.474Z,9.80
2019-04-29T12:35:33.702Z,9.80
2019-04-29T12:38:39.431Z,9.80
2019-04-29T12:41:29.831Z,9.90
2019-04-29T12:44:35.353Z,10.00
2019-04-29T12:47:25.344Z,10.00
2019-04-29T12:49:52.002Z,10.20
2019-04-29T12:52:31.998Z,10.20
2019-04-29T12:55:20.213Z,10.20
2019-04-29T12:57:47.109Z,10.30
2019-04-29T13:00:26.583Z,10.30
2019-04-29T13:03:09.169Z,10.40
2019-04-29T13:06:02.643Z,10.40
2019-04-29T13:08:46.378Z,10.30
2019-04-29T13:11:35.998Z,10.30
2019-04-29T13:14:02.014Z,10.40
2019-04-29T13:16:51.023Z,10.40
2019-04-29T13:19:37.463Z,10.40
2019-04-29T13:22:15.516Z,10.40
2019-04-29T13:24:52.451Z,10.40
2019-04-29T13:27:29.979Z,10.40
2019-04-29T13:30:14.681Z,10.40
2019-04-29T13:32:45.115Z,10.50
2019-04-29T13:35:22.658Z,10.40
2019-04-29T13:38:00.197Z,10.40
2019-04-29T13:40:39.414Z,10.40
2019-04-29T13:43:15.463Z,10.40
2019-04-29T13:46:00.053Z,10.40
2019-04-29T13:49:12.189Z,10.30
2019-04-29T13:51:40.942Z,10.30
2019-04-29T13:54:18.424Z,10.30
2019-04-29T13:56:56.941Z,10.30
2019-04-29T13:59:57.051Z,10.40
2019-04-29T14:02:58.802Z,10.40
2019-04-29T14:05:28.127Z,10.30
2019-04-29T14:08:05.594Z,10.30
2019-04-29T14:10:46.740Z,10.30
2019-04-29T14:13:21.215Z,10.20
2019-04-29T14:15:58.127Z,10.20
2019-04-29T14:18:35.656Z,10.30
2019-04-29T14:21:13.162Z,10.40
2019-04-29T14:23:50.646Z,10.40
2019-04-29T14:26:29.554Z,10.40
2019-04-29T14:29:05.924Z,10.50
2019-04-29T14:31:43.425Z,10.50
2019-04-29T14:34:26.243Z,10.50
2019-04-29T14:37:19.806Z,10.50
2019-04-29T14:39:41.229Z,10.50
2019-04-29T14:42:31.932Z,10.50
2019-04-29T14:45:39.886Z,10.60
2019-04-29T14:48:42.690Z,10.60
2019-04-29T14:51:14.802Z,10.70
2019-04-29T14:53:56.453Z,10.80
2019-04-29T14:56:29.823Z,10.80
2019-04-29T14:59:07.729Z,10.90
2019-04-29T15:01:51.598Z,10.90
2019-04-29T15:04:32.830Z,11.00
2019-04-29T15:07:10.350Z,11.00
2019-04-29T15:09:58.071Z,11.00
2019-04-29T15:13:19.307Z,11.10
2019-04-29T15:16:09.657Z,11.10
2019-04-29T15:18:50.095Z,11.10
2019-04-29T15:21:44.003Z,11.10
2019-04-29T15:24:19.517Z,11.20
2019-04-29T15:26:57.002Z,11.20
2019-04-29T15:29:34.559Z,11.20
2019-04-29T15:32:12.074Z,11.20
2019-04-29T15:34:49.838Z,11.20
2019-04-29T15:37:27.093Z,11.30
2019-04-29T15:40:07.861Z,11.30
2019-04-29T15:42:49.172Z,11.20
2019-04-29T15:45:22.809Z,11.30
2019-04-29T15:48:00.313Z,11.40
2019-04-29T15:50:39.044Z,11.40
2019-04-29T15:53:15.329Z,11.50
2019-04-29T15:58:30.401Z,11.60
2019-04-29T16:01:14.577Z,11.60
2019-04-29T16:03:45.366Z,11.70
2019-04-29T16:06:41.585Z,11.70
2019-04-29T16:09:51.099Z,11.70
2019-04-29T16:12:23.120Z,11.70
2019-04-29T16:15:00.622Z,11.50
2019-04-29T16:17:39.445Z,11.50
2019-04-29T16:20:15.978Z,11.50
2019-04-29T16:22:54.198Z,11.50
2019-04-29T16:25:30.976Z,11.50
2019-04-29T16:28:08.492Z,11.60
2019-04-29T16:30:45.998Z,11.60
2019-04-29T16:33:23.491Z,11.70
2019-04-29T16:36:04.774Z,11.70
2019-04-29T16:38:38.519Z,11.70
2019-04-29T16:41:40.412Z,11.70
2019-04-29T16:46:55.382Z,11.80
2019-04-29T16:49:32.882Z,11.90
2019-04-29T16:52:10.369Z,11.90
2019-04-29T16:54:48.205Z,11.90
2019-04-29T16:57:25.686Z,11.90
2019-04-29T17:00:06.460Z,11.90
2019-04-29T17:02:40.906Z,11.90
2019-04-29T17:05:18.440Z,11.90
2019-04-29T17:07:55.957Z,12.00
2019-04-29T17:10:39.165Z,11.90
2019-04-29T17:13:23.402Z,11.90
2019-04-29T17:15:54.145Z,11.80
2019-04-29T17:18:32.071Z,11.80
2019-04-29T17:21:09.575Z,11.80
2019-04-29T17:23:47.176Z,11.80
2019-04-29T17:26:25.828Z,11.80
2019-04-29T17:29:38.816Z,11.90
2019-04-29T17:32:41.979Z,11.90
2019-04-29T17:35:10.945Z,11.90
2019-04-29T17:35:13.769Z,11.60
2019-04-29T17:35:18.801Z,11.80
2019-04-29T17:37:48.165Z,11.90
2019-04-29T17:40:25.676Z,11.90
2019-04-29T17:43:18.106Z,12.00
2019-04-29T17:46:22.218Z,12.00
2019-04-29T17:49:31.675Z,11.90
2019-04-29T17:52:15.867Z,11.90
2019-04-29T17:54:54.969Z,11.80
2019-04-29T17:57:32.632Z,11.80
2019-04-29T18:00:41.120Z,11.80
2019-04-29T18:03:25.457Z,11.80
2019-04-29T18:06:24.383Z,11.80
2019-04-29T18:09:20.626Z,11.80
2019-04-29T18:11:58.798Z,11.80
2019-04-29T18:14:40.382Z,11.80
2019-04-29T18:17:24.302Z,11.70
2019-04-29T18:20:13.812Z,11.70
2019-04-29T18:23:05.406Z,11.70
2019-04-29T18:25:49.838Z,11.70
2019-04-29T18:28:27.539Z,11.60
2019-04-29T18:31:05.905Z,11.60
2019-04-29T18:33:42.860Z,11.50
2019-04-29T18:36:24.126Z,11.40
2019-04-29T18:38:58.401Z,11.40
2019-04-29T18:41:36.117Z,11.30
2019-04-29T18:44:19.240Z,11.30
2019-04-29T18:46:53.854Z,11.30
2019-04-29T18:49:29.952Z,11.20
2019-04-29T18:52:08.001Z,11.20
2019-04-29T18:54:46.047Z,11.20
2019-04-29T18:57:30.014Z,11.20
2019-04-29T19:00:04.736Z,11.20
2019-04-29T19:02:47.355Z,11.20
2019-04-29T19:05:32.378Z,11.10
2019-04-29T19:08:14.039Z,11.10
2019-04-29T19:10:49.879Z,11.00
2019-04-29T19:13:22.999Z,11.00
2019-04-29T19:16:09.431Z,10.90
2019-04-29T19:18:38.746Z,10.80
2019-04-29T19:21:16.578Z,10.80
2019-04-29T19:23:57.347Z,10.80
2019-04-29T19:26:34.911Z,10.80
2019-04-29T19:29:10.869Z,10.70
2019-04-29T19:31:50.009Z,10.70
2019-04-29T19:34:39.994Z,10.80
2019-04-29T19:37:06.832Z,10.70
2019-04-29T19:39:44.996Z,10.70
2019-04-29T19:42:28.994Z,10.70
2019-04-29T19:45:01.490Z,10.70
2019-04-29T19:47:39.464Z,10.70
2019-04-29T19:50:19.587Z,10.70
2019-04-29T19:52:56.057Z,10.70
2019-04-29T19:55:42.313Z,10.70
2019-04-29T19:58:18.178Z,10.70
2019-04-29T20:01:10.317Z,10.70
2019-04-29T20:03:41.642Z,10.70
2019-04-29T20:06:24.893Z,10.70
2019-04-29T20:09:00.908Z,10.60
2019-04-29T20:11:34.470Z,10.60
2019-04-29T20:14:18.933Z,10.60
2019-04-29T20:17:17.634Z,10.60
2019-04-29T20:20:15.882Z,10.60
2019-04-29T20:22:55.494Z,10.50
2019-04-29T20:25:37.831Z,10.50
2019-04-29T20:28:12.931Z,10.40
2019-04-29T20:30:50.542Z,10.40
2019-04-29T20:33:24.341Z,10.40
2019-04-29T20:36:02.397Z,10.30
2019-04-29T20:38:39.385Z,10.30
2019-04-29T20:41:18.149Z,10.30
2019-04-29T20:43:56.005Z,10.30
2019-04-29T20:46:43.299Z,10.30
2019-04-29T20:49:09.211Z,10.30
2019-04-29T20:51:52.360Z,10.30
2019-04-29T20:54:25.799Z,10.30
2019-04-29T20:57:06.010Z,10.30
2019-04-29T20:59:42.021Z,10.30
2019-04-29T21:02:30.047Z,10.30
2019-04-29T21:04:58.126Z,10.30
2019-04-29T21:07:33.102Z,10.30
2019-04-29T21:10:10.691Z,10.20
2019-04-29T21:13:25.767Z,10.20
2019-04-29T21:16:12.754Z,10.20
2019-04-29T21:18:52.858Z,10.20
2019-04-29T21:21:29.242Z,10.20
2019-04-29T21:24:14.088Z,10.10
2019-04-29T21:26:45.791Z,10.10
2019-04-29T21:29:21.724Z,10.10
2019-04-29T21:32:01.641Z,10.10
2019-04-29T21:34:42.081Z,10.00
2019-04-29T21:37:27.841Z,10.00
2019-04-29T21:40:14.706Z,10.00
2019-04-29T21:43:00.225Z,9.90
2019-04-29T21:45:39.830Z,9.90
2019-04-29T21:48:15.268Z,9.90
2019-04-29T21:50:52.784Z,9.80
2019-04-29T21:53:31.525Z,9.80
2019-04-29T21:56:09.479Z,9.80
2019-04-29T21:58:45.320Z,9.70
2019-04-29T22:01:22.827Z,9.60
2019-04-29T22:04:02.120Z,9.50
2019-04-29T22:06:37.819Z,9.40
2019-04-29T22:09:15.877Z,9.40
2019-04-29T22:11:52.808Z,9.30
2019-04-29T22:14:30.295Z,9.20
2019-04-29T22:17:07.774Z,9.20
2019-04-29T22:19:45.272Z,9.10
2019-04-29T22:22:22.738Z,9.00
2019-04-29T22:25:07.994Z,9.00
2019-04-29T22:27:39.298Z,8.90
2019-04-29T22:30:18.370Z,8.90
2019-04-29T22:32:58.097Z,8.80
2019-04-29T22:35:32.738Z,8.70
2019-04-29T22:38:12.542Z,8.60
2019-04-29T22:40:46.341Z,8.50
2019-04-29T22:43:32.055Z,8.40
2019-04-29T22:46:10.659Z,8.40
2019-04-29T22:48:48.794Z,8.30
2019-04-29T22:51:25.456Z,8.20
2019-04-29T22:54:02.015Z,8.10
2019-04-29T22:56:40.725Z,8.10
2019-04-29T22:59:19.083Z,8.00
2019-04-29T23:01:55.673Z,7.90
2019-04-29T23:04:32.001Z,7.90
2019-04-29T23:07:09.496Z,7.80
2019-04-29T23:09:47.968Z,7.70
2019-04-29T23:12:25.020Z,7.70
2019-04-29T23:15:01.987Z,7.60
2019-04-29T23:17:42.613Z,7.60
2019-04-29T23:20:35.275Z,7.50
2019-04-29T23:23:15.626Z,7.50
2019-04-29T23:25:55.532Z,7.40
2019-04-29T23:28:31.342Z,7.40
2019-04-29T23:31:08.858Z,7.30
2019-04-29T23:33:46.333Z,7.30
2019-04-29T23:36:23.859Z,7.30
2019-04-29T23:39:01.361Z,7.20
2019-04-29T23:41:38.983Z,7.20
2019-04-29T23:44:16.467Z,7.10
2019-04-29T23:46:53.980Z,7.10
2019-04-29T23:49:36.987Z,7.10
2019-04-29T23:52:11.659Z,7.00
2019-04-29T23:54:48.477Z,7.00
2019-04-29T23:57:42.974Z,6.90
